createdAt,value
2019-05-17T00:02:49.384Z,15.70
2019-05-17T00:05:19.566Z,15.70
2019-05-17T00:08:12.060Z,15.70
2019-05-17T00:10:42.177Z,15.70
2019-05-17T00:13:22.616Z,15.70
2019-05-17T00:15:52.790Z,15.60
2019-05-17T00:18:22.940Z,15.60
2019-05-17T00:20:53.101Z,15.70
2019-05-17T00:23:23.228Z,15.70
2019-05-17T00:25:53.406Z,15.70
2019-05-17T00:28:23.562Z,15.70
2019-05-17T00:30:53.771Z,15.60
2019-05-17T00:33:23.906Z,15.70
2019-05-17T00:35:56.168Z,15.70
2019-05-17T00:38:27.431Z,15.70
2019-05-17T00:40:57.936Z,15.70
2019-05-17T00:43:28.092Z,15.70
2019-05-17T00:46:11.736Z,15.60
2019-05-17T00:48:41.908Z,15.60
2019-05-17T00:51:32.283Z,15.60
2019-05-17T00:54:02.445Z,15.60
2019-05-17T00:56:52.731Z,15.60
2019-05-17T00:59:22.917Z,15.60
2019-05-17T01:02:01.594Z,15.60
2019-05-17T01:04:31.934Z,15.60
2019-05-17T01:07:02.212Z,15.60
2019-05-17T01:09:32.340Z,15.50
2019-05-17T01:12:02.574Z,15.60
2019-05-17T01:14:32.694Z,15.60
2019-05-17T01:17:02.874Z,15.60
2019-05-17T01:19:33.031Z,15.60
2019-05-17T01:22:03.213Z,15.60
2019-05-17T01:24:33.364Z,15.60
2019-05-17T01:27:03.528Z,15.60
2019-05-17T01:29:47.093Z,15.60
2019-05-17T01:32:17.395Z,15.60
2019-05-17T01:34:47.889Z,15.60
2019-05-17T01:37:18.002Z,15.50
2019-05-17T01:39:48.147Z,15.60
2019-05-17T01:42:18.308Z,15.70
2019-05-17T01:44:48.460Z,15.70
2019-05-17T01:47:18.588Z,15.70
2019-05-17T01:49:48.793Z,15.70
2019-05-17T01:52:18.931Z,15.70
2019-05-17T01:54:57.154Z,15.70
2019-05-17T01:57:28.384Z,15.70
2019-05-17T01:59:58.523Z,15.70
2019-05-17T02:02:33.770Z,15.60
2019-05-17T02:05:06.318Z,15.70
2019-05-17T02:07:41.733Z,15.70
2019-05-17T02:10:12.715Z,15.70
2019-05-17T02:13:08.844Z,15.70
2019-05-17T02:15:38.952Z,15.70
2019-05-17T02:18:33.307Z,15.60
2019-05-17T02:21:03.443Z,15.70
2019-05-17T02:23:57.123Z,15.70
2019-05-17T02:26:27.305Z,15.70
2019-05-17T02:29:21.439Z,15.70
2019-05-17T02:31:52.703Z,15.70
2019-05-17T02:34:43.190Z,15.70
2019-05-17T02:37:13.738Z,15.70
2019-05-17T02:40:08.371Z,15.70
2019-05-17T02:42:38.942Z,15.70
2019-05-17T02:45:33.115Z,15.80
2019-05-17T02:48:04.229Z,15.80
2019-05-17T02:50:58.042Z,15.80
2019-05-17T02:53:47.205Z,15.80
2019-05-17T02:56:24.661Z,15.70
2019-05-17T02:58:54.795Z,15.80
2019-05-17T03:01:47.166Z,15.80
2019-05-17T03:04:17.341Z,15.80
2019-05-17T03:07:13.266Z,15.70
2019-05-17T03:09:43.100Z,15.80
2019-05-17T03:12:33.398Z,15.80
2019-05-17T03:15:04.291Z,15.90
2019-05-17T03:17:43.415Z,15.80
2019-05-17T03:20:13.027Z,15.80
2019-05-17T03:22:44.428Z,15.80
2019-05-17T03:25:14.902Z,15.80
2019-05-17T03:27:45.013Z,15.90
2019-05-17T03:30:18.306Z,15.90
2019-05-17T03:32:48.925Z,15.90
2019-05-17T03:35:26.387Z,15.90
2019-05-17T03:37:53.420Z,15.90
2019-05-17T03:40:55.450Z,15.80
2019-05-17T03:42:56.021Z,15.80
2019-05-17T03:45:26.342Z,15.90
2019-05-17T03:47:56.483Z,15.90
2019-05-17T03:50:26.610Z,15.90
2019-05-17T03:52:57.185Z,16.00
2019-05-17T03:55:38.440Z,16.00
2019-05-17T03:58:08.703Z,16.00
2019-05-17T04:00:38.871Z,16.10
2019-05-17T04:03:09.049Z,16.10
2019-05-17T04:05:42.665Z,16.10
2019-05-17T04:08:13.916Z,16.10
2019-05-17T04:10:42.792Z,16.20
2019-05-17T04:13:13.193Z,16.20
2019-05-17T04:15:43.590Z,16.20
2019-05-17T04:18:14.047Z,16.20
2019-05-17T04:20:44.173Z,16.10
2019-05-17T04:23:17.600Z,16.20
2019-05-17T04:25:47.669Z,16.20
2019-05-17T04:28:17.928Z,16.30
2019-05-17T04:30:48.062Z,16.30
2019-05-17T04:33:36.206Z,16.30
2019-05-17T04:36:06.390Z,16.30
2019-05-17T04:38:56.385Z,16.30
2019-05-17T04:41:41.278Z,16.30
2019-05-17T04:44:06.133Z,16.30
2019-05-17T04:46:36.457Z,16.20
2019-05-17T04:49:06.613Z,16.20
2019-05-17T04:51:36.778Z,16.10
2019-05-17T04:54:06.900Z,16.00
2019-05-17T04:56:37.024Z,16.10
2019-05-17T04:59:07.153Z,16.00
2019-05-17T05:01:37.396Z,16.00
2019-05-17T05:04:07.543Z,16.00
2019-05-17T05:06:54.233Z,15.90
2019-05-17T05:09:24.786Z,15.90
2019-05-17T05:12:01.167Z,15.90
2019-05-17T05:14:26.688Z,16.00
2019-05-17T05:16:56.881Z,15.90
2019-05-17T05:19:27.026Z,15.80
2019-05-17T05:22:22.331Z,15.80
2019-05-17T05:24:52.477Z,15.80
2019-05-17T05:27:42.274Z,15.90
2019-05-17T05:30:12.927Z,15.90
2019-05-17T05:32:52.536Z,15.90
2019-05-17T05:35:22.726Z,15.80
2019-05-17T05:37:52.880Z,15.80
2019-05-17T05:40:23.012Z,15.80
2019-05-17T05:42:53.174Z,15.80
2019-05-17T05:45:23.286Z,15.80
2019-05-17T05:47:53.426Z,15.80
2019-05-17T05:50:23.571Z,15.90
2019-05-17T05:52:53.730Z,15.80
2019-05-17T05:55:24.993Z,15.70
2019-05-17T05:57:55.118Z,15.80
2019-05-17T06:00:26.357Z,15.80
2019-05-17T06:02:56.556Z,15.80
2019-05-17T06:05:45.852Z,15.80
2019-05-17T06:08:15.954Z,15.80
2019-05-17T06:11:03.964Z,15.80
2019-05-17T06:13:29.453Z,15.90
2019-05-17T06:15:59.580Z,15.90
2019-05-17T06:18:31.680Z,15.90
2019-05-17T06:21:03.123Z,15.90
2019-05-17T06:23:33.568Z,16.00
2019-05-17T06:26:04.604Z,16.00
2019-05-17T06:28:34.900Z,16.00
2019-05-17T06:31:04.999Z,16.10
2019-05-17T06:33:35.171Z,16.10
2019-05-17T06:36:05.398Z,16.20
2019-05-17T06:38:35.583Z,16.30
2019-05-17T06:41:05.720Z,16.30
2019-05-17T06:43:57.257Z,16.40
2019-05-17T06:46:27.425Z,16.50
2019-05-17T06:48:57.623Z,16.70
2019-05-17T06:51:27.744Z,16.50
2019-05-17T06:53:57.940Z,16.70
2019-05-17T06:56:28.137Z,16.80
2019-05-17T06:58:58.341Z,16.90
2019-05-17T07:01:29.245Z,17.00
2019-05-17T07:04:00.310Z,17.10
2019-05-17T07:06:32.661Z,17.40
2019-05-17T07:09:02.780Z,17.60
2019-05-17T07:11:32.924Z,17.50
2019-05-17T07:14:03.092Z,17.30
2019-05-17T07:16:36.416Z,17.30
2019-05-17T07:19:06.584Z,17.50
2019-05-17T07:21:36.721Z,17.90
2019-05-17T07:24:06.824Z,18.10
2019-05-17T07:26:39.234Z,18.30
2019-05-17T07:29:10.080Z,18.50
2019-05-17T07:31:40.645Z,18.60
2019-05-17T07:34:11.014Z,18.60
2019-05-17T07:36:41.204Z,18.40
2019-05-17T07:39:11.772Z,18.30
2019-05-17T07:41:41.928Z,18.10
2019-05-17T07:44:20.502Z,17.90
2019-05-17T07:46:51.784Z,17.90
2019-05-17T07:49:22.097Z,17.70
2019-05-17T07:51:52.260Z,17.50
2019-05-17T07:54:22.413Z,17.50
2019-05-17T07:56:52.549Z,17.30
2019-05-17T07:59:22.738Z,17.20
2019-05-17T08:01:52.922Z,17.10
2019-05-17T08:04:23.133Z,17.00
2019-05-17T08:06:53.657Z,17.10
2019-05-17T08:09:23.790Z,17.50
2019-05-17T08:11:53.934Z,17.90
2019-05-17T08:14:29.522Z,18.20
2019-05-17T08:17:01.860Z,18.40
2019-05-17T08:19:31.977Z,18.40
2019-05-17T08:22:02.164Z,18.40
2019-05-17T08:24:32.289Z,18.30
2019-05-17T08:27:02.432Z,18.30
2019-05-17T08:29:34.921Z,18.00
2019-05-17T08:32:05.055Z,17.70
2019-05-17T08:34:35.217Z,17.80
2019-05-17T08:37:05.341Z,17.70
2019-05-17T08:39:35.609Z,17.80
2019-05-17T08:42:05.792Z,17.80
2019-05-17T08:44:36.285Z,17.70
2019-05-17T08:47:06.449Z,17.60
2019-05-17T08:49:36.580Z,17.70
2019-05-17T08:52:06.761Z,17.70
2019-05-17T08:54:52.868Z,17.60
2019-05-17T08:57:23.035Z,17.50
2019-05-17T09:00:17.040Z,17.60
2019-05-17T09:02:47.194Z,17.60
2019-05-17T09:05:44.242Z,17.70
2019-05-17T09:08:14.373Z,17.90
2019-05-17T09:11:11.012Z,17.70
2019-05-17T09:13:54.346Z,17.90
2019-05-17T09:16:30.731Z,18.40
2019-05-17T09:19:01.048Z,18.20
2019-05-17T09:21:31.564Z,18.30
2019-05-17T09:24:02.053Z,18.10
2019-05-17T09:26:32.189Z,18.00
2019-05-17T09:29:02.360Z,17.80
2019-05-17T09:31:32.557Z,17.90
2019-05-17T09:34:02.712Z,17.90
2019-05-17T09:36:32.861Z,18.00
2019-05-17T09:39:04.605Z,18.10
2019-05-17T09:41:34.840Z,18.10
2019-05-17T09:44:14.912Z,18.10
2019-05-17T09:46:36.840Z,18.20
2019-05-17T09:49:06.997Z,18.30
2019-05-17T09:51:39.486Z,18.20
2019-05-17T09:54:39.037Z,18.20
2019-05-17T09:57:00.283Z,18.30
2019-05-17T09:59:30.164Z,18.30
2019-05-17T10:02:00.317Z,18.10
2019-05-17T10:04:30.523Z,18.20
2019-05-17T10:07:00.612Z,18.10
2019-05-17T10:09:30.768Z,18.20
2019-05-17T10:12:00.940Z,18.30
2019-05-17T10:14:31.495Z,18.60
2019-05-17T10:17:01.686Z,18.70
2019-05-17T10:19:31.853Z,18.70
2019-05-17T10:22:02.031Z,18.70
2019-05-17T10:24:37.873Z,18.70
2019-05-17T10:27:04.020Z,18.60
2019-05-17T10:29:34.191Z,18.80
2019-05-17T10:32:26.768Z,18.90
2019-05-17T10:34:56.940Z,19.10
2019-05-17T10:37:27.120Z,19.40
2019-05-17T10:39:57.282Z,19.70
2019-05-17T10:42:30.399Z,19.90
2019-05-17T10:44:59.977Z,20.30
2019-05-17T10:47:30.363Z,20.20
2019-05-17T10:50:00.484Z,20.60
2019-05-17T10:52:30.585Z,21.20
2019-05-17T10:55:00.758Z,21.60
2019-05-17T10:57:30.931Z,21.90
2019-05-17T11:00:01.156Z,22.10
2019-05-17T11:02:31.353Z,22.30
2019-05-17T11:05:21.377Z,22.40
2019-05-17T11:07:50.506Z,22.90
2019-05-17T11:10:20.810Z,23.10
2019-05-17T11:12:50.991Z,23.80
2019-05-17T11:15:21.961Z,23.10
2019-05-17T11:17:52.148Z,22.80
2019-05-17T11:20:22.580Z,22.40
2019-05-17T11:22:52.750Z,21.90
2019-05-17T11:25:22.945Z,21.40
2019-05-17T11:27:53.061Z,21.00
2019-05-17T11:30:23.299Z,20.80
2019-05-17T11:33:10.149Z,21.00
2019-05-17T11:35:40.302Z,21.20
2019-05-17T11:38:31.169Z,20.70
2019-05-17T11:41:18.414Z,20.60
2019-05-17T11:43:53.156Z,20.30
2019-05-17T11:46:35.254Z,20.20
2019-05-17T11:49:24.067Z,20.40
2019-05-17T11:51:54.199Z,20.30
2019-05-17T11:54:40.099Z,20.30
2019-05-17T11:57:06.957Z,20.40
2019-05-17T11:59:37.095Z,21.20
2019-05-17T12:02:07.273Z,22.10
2019-05-17T12:04:37.461Z,22.60
2019-05-17T12:07:07.603Z,22.60
2019-05-17T12:09:37.984Z,22.60
2019-05-17T12:12:08.128Z,22.40
2019-05-17T12:14:38.291Z,22.30
2019-05-17T12:17:08.541Z,22.40
2019-05-17T12:19:38.666Z,22.20
2019-05-17T12:22:08.882Z,22.30
2019-05-17T12:24:39.027Z,22.30
2019-05-17T12:27:11.985Z,21.90
2019-05-17T12:29:42.181Z,22.60
2019-05-17T12:32:32.822Z,23.00
2019-05-17T12:35:03.381Z,23.00
2019-05-17T12:37:44.408Z,23.50
2019-05-17T12:40:15.114Z,23.00
2019-05-17T12:42:45.261Z,22.80
2019-05-17T12:45:15.723Z,23.20
2019-05-17T12:47:45.980Z,23.50
2019-05-17T12:50:16.753Z,23.80
2019-05-17T12:52:47.845Z,24.20
2019-05-17T12:55:18.532Z,24.40
2019-05-17T12:57:48.673Z,24.10
2019-05-17T13:00:20.176Z,23.90
2019-05-17T13:02:50.353Z,24.60
2019-05-17T13:05:40.038Z,26.00
2019-05-17T13:08:10.219Z,25.40
2019-05-17T13:10:40.376Z,28.30
2019-05-17T13:13:10.516Z,28.60
2019-05-17T13:15:40.720Z,26.50
2019-05-17T13:18:10.929Z,27.20
2019-05-17T13:20:41.179Z,28.00
2019-05-17T13:23:11.359Z,26.30
2019-05-17T13:25:41.530Z,25.90
2019-05-17T13:28:11.698Z,24.70
2019-05-17T13:30:41.849Z,25.00
2019-05-17T13:33:12.002Z,26.40
2019-05-17T13:35:42.161Z,25.60
2019-05-17T13:38:34.978Z,25.40
2019-05-17T13:41:05.142Z,27.40
2019-05-17T13:43:56.957Z,27.40
2019-05-17T13:46:33.191Z,25.90
2019-05-17T13:49:17.889Z,27.70
2019-05-17T13:51:48.067Z,29.50
2019-05-17T13:54:18.232Z,32.30
2019-05-17T13:56:48.402Z,30.30
2019-05-17T13:59:18.575Z,29.40
2019-05-17T14:01:48.777Z,28.20
2019-05-17T14:04:19.024Z,27.00
2019-05-17T14:06:49.129Z,25.40
2019-05-17T14:09:19.289Z,28.40
2019-05-17T14:11:49.854Z,29.60
2019-05-17T14:14:20.182Z,31.20
2019-05-17T14:16:51.014Z,28.50
2019-05-17T14:19:21.304Z,29.50
2019-05-17T14:21:57.424Z,31.60
2019-05-17T14:24:27.700Z,33.00
2019-05-17T14:26:57.857Z,31.30
2019-05-17T14:29:28.768Z,30.50
2019-05-17T14:31:58.974Z,30.20
2019-05-17T14:34:29.101Z,32.30
2019-05-17T14:36:59.251Z,32.30
2019-05-17T14:39:29.661Z,30.80
2019-05-17T14:41:59.807Z,29.20
2019-05-17T14:44:30.025Z,28.90
2019-05-17T14:47:00.209Z,28.70
2019-05-17T14:49:51.094Z,26.20
2019-05-17T14:52:20.145Z,24.80
2019-05-17T14:54:58.969Z,26.00
2019-05-17T14:57:30.507Z,28.40
2019-05-17T15:00:00.671Z,30.50
2019-05-17T15:02:30.845Z,30.60
2019-05-17T15:05:01.053Z,31.10
2019-05-17T15:07:31.312Z,30.00
2019-05-17T15:10:01.489Z,28.80
2019-05-17T15:12:31.647Z,28.00
2019-05-17T15:15:01.803Z,27.50
2019-05-17T15:17:34.843Z,25.90
2019-05-17T15:20:03.746Z,25.40
2019-05-17T15:22:55.985Z,25.00
2019-05-17T15:25:26.165Z,25.40
2019-05-17T15:27:56.288Z,25.70
2019-05-17T15:30:26.487Z,25.90
2019-05-17T15:32:56.617Z,26.50
2019-05-17T15:35:26.862Z,26.50
2019-05-17T15:37:57.055Z,25.70
2019-05-17T15:40:27.185Z,25.10
2019-05-17T15:42:57.321Z,25.40
2019-05-17T15:45:35.947Z,25.30
2019-05-17T15:48:06.125Z,25.10
2019-05-17T15:50:36.314Z,25.30
2019-05-17T15:53:06.434Z,23.50
2019-05-17T15:55:36.637Z,25.10
2019-05-17T15:58:06.773Z,27.60
2019-05-17T16:00:36.909Z,28.50
2019-05-17T16:03:07.079Z,26.90
2019-05-17T16:05:37.271Z,26.00
2019-05-17T16:08:07.414Z,25.10
2019-05-17T16:10:37.619Z,24.70
2019-05-17T16:13:07.798Z,24.20
2019-05-17T16:15:37.907Z,24.10
2019-05-17T16:18:08.025Z,23.50
2019-05-17T16:20:38.153Z,23.30
2019-05-17T16:23:08.378Z,23.00
2019-05-17T16:25:38.675Z,23.80
2019-05-17T16:28:08.810Z,23.90
2019-05-17T16:30:39.043Z,25.20
2019-05-17T16:33:09.181Z,25.60
2019-05-17T16:35:39.293Z,24.40
2019-05-17T16:38:09.515Z,23.80
2019-05-17T16:40:42.394Z,23.30
2019-05-17T16:43:18.114Z,23.00
2019-05-17T16:45:58.839Z,22.90
2019-05-17T16:48:28.927Z,22.80
2019-05-17T16:51:20.320Z,22.40
2019-05-17T16:53:51.794Z,22.10
2019-05-17T16:56:21.972Z,21.70
2019-05-17T16:58:52.144Z,21.50
2019-05-17T17:01:22.356Z,21.50
2019-05-17T17:03:52.900Z,21.40
2019-05-17T17:06:23.165Z,21.80
2019-05-17T17:09:01.006Z,21.60
2019-05-17T17:11:31.160Z,21.50
2019-05-17T17:14:01.534Z,21.30
2019-05-17T17:16:31.657Z,21.40
2019-05-17T17:19:01.921Z,21.40
2019-05-17T17:21:32.152Z,21.40
2019-05-17T17:24:03.326Z,21.20
2019-05-17T17:26:33.452Z,21.00
2019-05-17T17:29:25.389Z,20.90
2019-05-17T17:31:55.527Z,20.60
2019-05-17T17:34:25.738Z,20.50
2019-05-17T17:36:56.202Z,20.40
2019-05-17T17:39:26.343Z,20.20
2019-05-17T17:41:56.485Z,20.00
2019-05-17T17:44:26.613Z,19.90
2019-05-17T17:46:56.775Z,19.80
2019-05-17T17:49:26.925Z,19.80
2019-05-17T17:51:57.105Z,19.70
2019-05-17T17:54:27.265Z,19.70
2019-05-17T17:57:05.493Z,19.60
2019-05-17T17:59:35.601Z,19.60
2019-05-17T18:02:12.138Z,19.50
2019-05-17T18:04:42.301Z,19.30
2019-05-17T18:07:31.682Z,19.30
2019-05-17T18:10:01.871Z,19.20
2019-05-17T18:12:33.495Z,19.10
2019-05-17T18:15:06.466Z,18.90
2019-05-17T18:17:39.133Z,18.80
2019-05-17T18:20:08.609Z,18.20
2019-05-17T18:22:38.748Z,18.50
2019-05-17T18:25:09.120Z,18.30
2019-05-17T18:27:39.299Z,18.20
2019-05-17T18:30:09.578Z,18.00
2019-05-17T18:32:39.747Z,18.00
2019-05-17T18:35:09.897Z,17.80
2019-05-17T18:37:40.091Z,17.70
2019-05-17T18:40:10.846Z,17.60
2019-05-17T18:42:41.080Z,17.50
2019-05-17T18:45:24.332Z,17.50
2019-05-17T18:47:54.432Z,17.40
2019-05-17T18:50:45.709Z,17.30
2019-05-17T18:53:16.943Z,17.20
2019-05-17T18:56:09.441Z,17.10
2019-05-17T18:58:39.593Z,17.00
2019-05-17T19:01:10.138Z,17.00
2019-05-17T19:03:40.267Z,16.90
2019-05-17T19:06:10.429Z,16.80
2019-05-17T19:08:40.612Z,16.70
2019-05-17T19:11:10.751Z,16.70
2019-05-17T19:13:40.964Z,16.60
2019-05-17T19:16:11.245Z,16.50
2019-05-17T19:18:41.497Z,16.40
2019-05-17T19:21:11.638Z,16.30
2019-05-17T19:23:41.995Z,16.30
2019-05-17T19:26:12.172Z,16.20
2019-05-17T19:28:42.297Z,16.20
2019-05-17T19:31:12.464Z,16.20
2019-05-17T19:33:53.226Z,16.10
2019-05-17T19:36:23.614Z,16.10
2019-05-17T19:38:53.747Z,16.10
2019-05-17T19:41:23.918Z,16.00
2019-05-17T19:43:54.068Z,16.00
2019-05-17T19:46:24.270Z,15.90
2019-05-17T19:48:54.416Z,15.90
2019-05-17T19:51:24.550Z,15.90
2019-05-17T19:53:54.740Z,15.80
2019-05-17T19:56:24.853Z,15.80
2019-05-17T19:58:55.023Z,15.90
2019-05-17T20:01:25.157Z,15.80
2019-05-17T20:03:55.396Z,15.80
2019-05-17T20:06:25.593Z,15.70
2019-05-17T20:08:55.838Z,15.70
2019-05-17T20:11:46.120Z,15.70
2019-05-17T20:14:16.321Z,15.70
2019-05-17T20:16:48.502Z,15.70
2019-05-17T20:19:18.365Z,15.70
2019-05-17T20:21:49.151Z,15.70
2019-05-17T20:24:19.299Z,15.70
2019-05-17T20:26:49.570Z,15.60
2019-05-17T20:29:19.753Z,15.60
2019-05-17T20:31:49.880Z,15.60
2019-05-17T20:34:20.049Z,15.60
2019-05-17T20:36:50.289Z,15.60
2019-05-17T20:39:20.486Z,15.60
2019-05-17T20:41:50.688Z,15.50
2019-05-17T20:44:20.859Z,15.50
2019-05-17T20:46:50.965Z,15.50
2019-05-17T20:49:36.467Z,15.50
2019-05-17T20:52:06.597Z,15.40
2019-05-17T20:55:00.999Z,15.40
2019-05-17T20:57:31.148Z,15.40
2019-05-17T21:00:11.629Z,15.40
2019-05-17T21:02:42.150Z,15.40
2019-05-17T21:05:15.920Z,15.40
2019-05-17T21:07:46.284Z,15.30
2019-05-17T21:10:16.537Z,15.30
2019-05-17T21:12:46.762Z,15.30
2019-05-17T21:15:16.964Z,15.20
2019-05-17T21:17:47.347Z,15.20
2019-05-17T21:20:18.933Z,15.20
2019-05-17T21:22:49.079Z,15.10
2019-05-17T21:25:19.236Z,15.00
2019-05-17T21:27:49.352Z,15.00
2019-05-17T21:30:19.699Z,14.90
2019-05-17T21:32:49.818Z,14.90
2019-05-17T21:35:19.997Z,14.80
2019-05-17T21:38:11.898Z,14.80
2019-05-17T21:40:42.028Z,14.70
2019-05-17T21:43:34.807Z,14.70
2019-05-17T21:46:04.527Z,14.60
2019-05-17T21:48:56.898Z,14.50
2019-05-17T21:51:17.762Z,14.50
2019-05-17T21:53:48.268Z,14.50
2019-05-17T21:56:18.414Z,14.40
2019-05-17T21:58:48.518Z,14.30
2019-05-17T22:01:23.620Z,14.30
2019-05-17T22:03:53.832Z,14.20
2019-05-17T22:06:24.233Z,14.20
2019-05-17T22:08:54.350Z,14.10
2019-05-17T22:11:24.488Z,14.10
2019-05-17T22:13:54.631Z,14.00
2019-05-17T22:16:24.856Z,14.00
2019-05-17T22:18:54.956Z,14.00
2019-05-17T22:21:25.064Z,13.90
2019-05-17T22:23:55.195Z,13.90
2019-05-17T22:26:30.677Z,14.00
2019-05-17T22:29:00.810Z,14.00
2019-05-17T22:31:30.945Z,14.10
2019-05-17T22:34:01.105Z,14.10
2019-05-17T22:36:31.264Z,14.10
2019-05-17T22:39:01.433Z,14.10
2019-05-17T22:41:31.593Z,14.10
2019-05-17T22:44:01.878Z,14.10
2019-05-17T22:46:35.956Z,14.00
2019-05-17T22:49:03.782Z,13.90
2019-05-17T22:51:33.894Z,13.90
2019-05-17T22:54:06.657Z,13.90
2019-05-17T22:56:55.797Z,13.80
2019-05-17T22:59:26.033Z,13.90
2019-05-17T23:01:56.215Z,13.80
2019-05-17T23:04:39.382Z,13.80
2019-05-17T23:07:09.564Z,13.80
2019-05-17T23:10:02.700Z,13.90
2019-05-17T23:12:32.871Z,14.00
2019-05-17T23:15:30.280Z,14.00
2019-05-17T23:18:00.409Z,14.10
2019-05-17T23:20:49.436Z,14.10
2019-05-17T23:23:19.587Z,14.10
2019-05-17T23:26:12.601Z,14.10
2019-05-17T23:28:42.759Z,14.00
2019-05-17T23:31:35.117Z,14.10
2019-05-17T23:34:05.284Z,14.10
2019-05-17T23:36:35.458Z,14.10
2019-05-17T23:39:07.066Z,14.10
2019-05-17T23:41:37.337Z,14.00
2019-05-17T23:44:07.464Z,14.00
2019-05-17T23:46:37.659Z,14.10
2019-05-17T23:49:07.814Z,14.10
2019-05-17T23:51:37.929Z,14.10
2019-05-17T23:54:08.120Z,14.10
2019-05-17T23:56:38.333Z,14.00
2019-05-17T23:59:08.509Z,14.10
